Time;durP1;ratioP1;P1;durP2;ratioP2;P2;SDS_P1;SDS_P2;PMS_P1;PMS_P2;Temp;Humidity;BMP_temperature;BMP_pressure;BME280_temperature;BME280_humidity;BME280_pressure;Samples;Min_cycle;Max_cycle;Signal;HPM_P1;HPM_P2
2021/11/19 00:00:57;;;;;;;58.30;29.83;;;;;;;;;;5023063;28;20042;-48
2021/11/19 00:03:24;;;;;;;65.30;32.05;;;;;;;;;;5024162;28;20428;-49
2021/11/19 00:05:51;;;;;;;47.70;25.73;;;;;;;;;;5023135;28;20079;-50
2021/11/19 00:08:21;;;;;;;49.83;26.10;;;;;;;;;;5023318;28;20477;-48
2021/11/19 00:10:47;;;;;;;46.90;24.58;;;;;;;;;;5023190;28;20029;-48
2021/11/19 00:13:13;;;;;;;62.38;31.58;;;;;;;;;;5022920;28;20025;-49
2021/11/19 00:15:39;;;;;;;51.13;28.13;;;;;;;;;;5022854;28;20025;-49
2021/11/19 00:18:06;;;;;;;54.70;27.80;;;;;;;;;;5022699;28;20079;-50
2021/11/19 00:20:32;;;;;;;53.85;29.20;;;;;;;;;;5022844;28;20052;-49
2021/11/19 00:23:00;;;;;;;49.13;26.83;;;;;;;;;;5022613;28;20067;-49
2021/11/19 00:25:26;;;;;;;43.30;21.80;;;;;;;;;;5022999;28;20025;-49
2021/11/19 00:27:53;;;;;;;46.95;26.42;;;;;;;;;;5043871;28;20074;-49
2021/11/19 00:30:20;;;;;;;38.42;21.85;;;;;;;;;;5053620;28;20389;-50
2021/11/19 00:32:46;;;;;;;34.25;18.90;;;;;;;;;;5053187;28;20025;-49
2021/11/19 00:35:13;;;;;;;32.88;19.15;;;;;;;;;;5053336;28;20086;-49
2021/11/19 00:37:40;;;;;;;39.78;18.45;;;;;;;;;;5053233;28;20021;-49
2021/11/19 00:40:08;;;;;;;35.58;20.42;;;;;;;;;;5052947;28;20754;-49
2021/11/19 00:42:34;;;;;;;38.42;21.25;;;;;;;;;;5051650;28;20033;-49
2021/11/19 00:45:00;;;;;;;40.75;22.52;;;;;;;;;;5053032;28;20039;-49
2021/11/19 00:47:26;;;;;;;38.53;20.05;;;;;;;;;;5053125;28;20112;-49
2021/11/19 00:49:53;;;;;;;37.60;20.40;;;;;;;;;;5053018;28;20104;-49
2021/11/19 00:52:20;;;;;;;35.35;19.80;;;;;;;;;;5052866;28;20045;-49
2021/11/19 00:54:49;;;;;;;49.10;27.30;;;;;;;;;;5053374;28;20025;-49
2021/11/19 00:57:16;;;;;;;37.35;21.45;;;;;;;;;;5052974;28;20220;-49
2021/11/19 00:59:43;;;;;;;35.60;18.67;;;;;;;;;;5052871;28;21243;-50
2021/11/19 01:02:15;;;;;;;32.13;19.42;;;;;;;;;;5052949;28;20060;-49
2021/11/19 01:04:41;;;;;;;;;;;;;;;;;;5053377;28;20097;-49
2021/11/19 01:07:07;;;;;;;31.98;17.70;;;;;;;;;;5052805;28;20353;-49
2021/11/19 01:09:35;;;;;;;35.38;19.80;;;;;;;;;;5052778;28;20473;-49
2021/11/19 01:12:03;;;;;;;34.42;20.40;;;;;;;;;;5052816;28;20025;-49
2021/11/19 01:14:29;;;;;;;35.15;20.10;;;;;;;;;;5052743;28;20021;-49
2021/11/19 01:17:00;;;;;;;41.13;22.92;;;;;;;;;;5052671;28;20029;-49
2021/11/19 01:19:34;;;;;;;46.72;25.10;;;;;;;;;;5052579;28;20043;-49
2021/11/19 01:22:04;;;;;;;48.00;26.70;;;;;;;;;;5052709;28;20028;-49
2021/11/19 01:24:30;;;;;;;37.83;21.20;;;;;;;;;;5053206;28;20112;-49
2021/11/19 01:26:56;;;;;;;34.55;20.77;;;;;;;;;;5052490;28;20022;-49
2021/11/19 01:29:25;;;;;;;48.63;26.67;;;;;;;;;;5052652;28;20025;-49
2021/11/19 01:31:53;;;;;;;41.53;23.35;;;;;;;;;;5052559;28;20021;-49
2021/11/19 01:34:19;;;;;;;38.10;21.83;;;;;;;;;;5052571;28;20469;-49
2021/11/19 01:36:46;;;;;;;45.33;26.10;;;;;;;;;;5052583;28;20032;-49
2021/11/19 01:39:13;;;;;;;38.65;21.25;;;;;;;;;;5052643;28;20044;-49
2021/11/19 01:41:42;;;;;;;34.55;20.02;;;;;;;;;;5052409;28;20038;-49
2021/11/19 01:44:14;;;;;;;38.63;21.80;;;;;;;;;;5052430;28;20021;-48
2021/11/19 01:46:44;;;;;;;34.67;19.65;;;;;;;;;;5052516;28;20071;-49
2021/11/19 01:49:11;;;;;;;37.97;20.50;;;;;;;;;;5052415;28;20021;-49
2021/11/19 01:51:42;;;;;;;32.60;18.55;;;;;;;;;;5052238;28;20053;-48
2021/11/19 01:54:14;;;;;;;40.08;20.95;;;;;;;;;;5055002;28;20032;-49
2021/11/19 01:56:40;;;;;;;;;;;;;;;;;;5056817;28;20021;-49
2021/11/19 01:59:09;;;;;;;39.97;23.45;;;;;;;;;;5056377;28;19911;-49
2021/11/19 02:01:55;;;;;;;34.30;17.52;;;;;;;;;;5056137;28;20048;-50
2021/11/19 02:04:24;;;;;;;27.20;16.77;;;;;;;;;;5055859;28;20056;-49
2021/11/19 02:06:52;;;;;;;34.28;17.75;;;;;;;;;;5056016;28;20031;-49
2021/11/19 02:09:29;;;;;;;28.98;17.63;;;;;;;;;;5056031;28;20029;-49
2021/11/19 02:12:03;;;;;;;29.48;17.13;;;;;;;;;;5056076;28;20032;-49
2021/11/19 02:14:36;;;;;;;32.80;18.38;;;;;;;;;;5055911;28;20100;-49
2021/11/19 02:17:04;;;;;;;39.00;20.42;;;;;;;;;;5055913;28;20027;-49
2021/11/19 02:19:35;;;;;;;25.25;15.52;;;;;;;;;;5055731;28;20376;-49
2021/11/19 02:22:04;;;;;;;;;;;;;;;;;;5056278;28;19958;-48
2021/11/19 02:24:36;;;;;;;24.83;14.73;;;;;;;;;;5055765;28;19905;-49
2021/11/19 02:27:02;;;;;;;;;;;;;;;;;;5056814;28;20029;-49
2021/11/19 02:29:28;;;;;;;38.58;19.98;;;;;;;;;;5055748;28;20326;-49
2021/11/19 02:31:57;;;;;;;31.77;18.10;;;;;;;;;;5055660;28;20100;-49
2021/11/19 02:34:24;;;;;;;29.02;14.98;;;;;;;;;;5055711;28;20017;-49
2021/11/19 02:36:52;;;;;;;29.83;16.25;;;;;;;;;;5055476;28;20025;-48
2021/11/19 02:39:30;;;;;;;27.98;16.60;;;;;;;;;;5055539;28;20040;-49
2021/11/19 02:42:00;;;;;;;30.15;15.68;;;;;;;;;;5055368;28;20032;-49
2021/11/19 02:44:37;;;;;;;34.67;19.45;;;;;;;;;;5054732;28;20033;-48
2021/11/19 02:47:07;;;;;;;35.85;18.65;;;;;;;;;;5055363;28;20021;-49
2021/11/19 02:49:33;;;;;;;35.28;19.55;;;;;;;;;;5055423;28;20025;-49
2021/11/19 02:52:00;;;;;;;36.25;19.50;;;;;;;;;;5055097;28;20052;-49
2021/11/19 02:54:28;;;;;;;35.95;18.60;;;;;;;;;;5055682;28;20025;-49
2021/11/19 02:56:56;;;;;;;37.42;20.55;;;;;;;;;;5055039;28;20135;-49
2021/11/19 02:59:23;;;;;;;35.72;18.88;;;;;;;;;;5054918;28;20025;-49
2021/11/19 03:01:57;;;;;;;34.13;18.10;;;;;;;;;;5054939;28;20064;-49
2021/11/19 03:04:28;;;;;;;30.55;16.52;;;;;;;;;;5053091;28;20078;-49
2021/11/19 03:06:58;;;;;;;32.75;17.88;;;;;;;;;;5054995;28;20025;-49
2021/11/19 03:09:40;;;;;;;36.42;18.38;;;;;;;;;;5054883;28;20031;-49
2021/11/19 03:12:07;;;;;;;25.67;15.68;;;;;;;;;;5054798;28;20053;-49
2021/11/19 03:14:34;;;;;;;31.83;16.98;;;;;;;;;;5054731;28;20020;-49
2021/11/19 03:17:00;;;;;;;29.35;15.80;;;;;;;;;;5054832;28;20032;-49
2021/11/19 03:19:27;;;;;;;28.20;16.77;;;;;;;;;;5054685;28;20028;-49
2021/11/19 03:21:53;;;;;;;29.77;16.92;;;;;;;;;;5054553;28;20408;-49
2021/11/19 03:24:20;;;;;;;27.85;15.95;;;;;;;;;;5054787;28;20522;-50
2021/11/19 03:26:48;;;;;;;26.02;16.20;;;;;;;;;;5054550;28;20033;-49
2021/11/19 03:29:17;;;;;;;30.42;15.60;;;;;;;;;;5054520;28;20049;-49
2021/11/19 03:31:43;;;;;;;22.15;14.18;;;;;;;;;;5054841;28;20029;-49
2021/11/19 03:34:10;;;;;;;27.52;15.05;;;;;;;;;;5054220;28;20025;-49
2021/11/19 03:36:40;;;;;;;26.63;15.30;;;;;;;;;;5054391;28;20071;-49
2021/11/19 03:39:07;;;;;;;25.98;14.68;;;;;;;;;;5054300;28;20188;-49
2021/11/19 03:41:34;;;;;;;28.05;15.90;;;;;;;;;;5054425;28;20484;-49
2021/11/19 03:44:00;;;;;;;29.13;15.27;;;;;;;;;;5053748;28;20033;-49
2021/11/19 03:46:36;;;;;;;29.27;14.52;;;;;;;;;;5054089;28;20074;-49
2021/11/19 03:49:03;;;;;;;28.95;16.40;;;;;;;;;;5053955;28;20526;-49
2021/11/19 03:51:33;;;;;;;23.63;13.40;;;;;;;;;;5053916;28;20044;-49
2021/11/19 03:53:59;;;;;;;26.08;15.05;;;;;;;;;;5053971;28;20079;-48
2021/11/19 03:56:26;;;;;;;28.63;16.30;;;;;;;;;;5053870;28;20025;-50
2021/11/19 03:58:52;;;;;;;25.48;15.18;;;;;;;;;;5053971;28;20025;-49
2021/11/19 04:01:29;;;;;;;27.52;15.05;;;;;;;;;;5053969;28;20029;-49
2021/11/19 04:03:55;;;;;;;32.15;16.83;;;;;;;;;;5053915;28;20077;-49
2021/11/19 04:06:22;;;;;;;28.60;16.35;;;;;;;;;;5053790;28;20033;-49
2021/11/19 04:08:48;;;;;;;28.08;14.88;;;;;;;;;;5053718;28;20542;-49
2021/11/19 04:11:15;;;;;;;26.25;15.15;;;;;;;;;;5053802;28;20032;-49
2021/11/19 04:13:41;;;;;;;25.92;14.77;;;;;;;;;;5053702;28;20021;-49
2021/11/19 04:16:09;;;;;;;25.52;14.05;;;;;;;;;;5052894;28;20036;-49
2021/11/19 04:18:38;;;;;;;24.88;15.05;;;;;;;;;;5053570;28;20028;-50
2021/11/19 04:21:05;;;;;;;30.30;15.75;;;;;;;;;;5053224;28;20086;-49
2021/11/19 04:23:31;;;;;;;28.92;14.60;;;;;;;;;;5053814;28;20718;-49
2021/11/19 04:25:59;;;;;;;28.30;17.02;;;;;;;;;;5053366;28;20025;-49
2021/11/19 04:28:25;;;;;;;26.88;15.88;;;;;;;;;;5053733;28;20021;-50
2021/11/19 04:30:53;;;;;;;25.45;15.75;;;;;;;;;;5053336;28;20025;-50
2021/11/19 04:33:19;;;;;;;24.58;15.30;;;;;;;;;;5053596;28;20028;-49
2021/11/19 04:35:47;;;;;;;23.52;14.18;;;;;;;;;;5053262;28;20032;-49
2021/11/19 04:38:13;;;;;;;24.25;14.73;;;;;;;;;;5053152;28;20120;-49
2021/11/19 04:40:39;;;;;;;27.65;15.45;;;;;;;;;;5053600;28;20040;-49
2021/11/19 04:43:06;;;;;;;25.30;14.88;;;;;;;;;;5053121;28;20388;-49
2021/11/19 04:45:33;;;;;;;28.33;15.68;;;;;;;;;;5053345;28;20025;-49
2021/11/19 04:47:59;;;;;;;23.17;14.88;;;;;;;;;;5053204;28;20025;-49
2021/11/19 04:50:28;;;;;;;26.40;14.93;;;;;;;;;;5052822;28;20067;-50
2021/11/19 04:52:54;;;;;;;23.45;14.55;;;;;;;;;;5052845;28;20079;-50
2021/11/19 04:55:20;;;;;;;26.73;14.90;;;;;;;;;;5052975;28;20035;-49
2021/11/19 04:57:46;;;;;;;26.38;16.25;;;;;;;;;;5052933;28;20021;-50
2021/11/19 05:00:15;;;;;;;27.00;15.07;;;;;;;;;;5052791;28;20017;-49
2021/11/19 05:02:41;;;;;;;24.70;14.68;;;;;;;;;;5052974;28;20465;-50
2021/11/19 05:05:07;;;;;;;25.95;16.30;;;;;;;;;;5052782;28;20036;-50
2021/11/19 05:07:34;;;;;;;27.88;17.25;;;;;;;;;;5052754;28;20033;-49
2021/11/19 05:10:00;;;;;;;30.85;16.70;;;;;;;;;;5052895;28;20078;-50
2021/11/19 05:12:28;;;;;;;29.30;17.77;;;;;;;;;;5051824;28;20443;-49
2021/11/19 05:14:54;;;;;;;50.50;24.38;;;;;;;;;;5052727;28;20017;-50
2021/11/19 05:17:23;;;;;;;49.28;23.35;;;;;;;;;;5052829;28;20111;-49
2021/11/19 05:19:49;;;;;;;43.78;21.25;;;;;;;;;;5052613;28;20122;-49
2021/11/19 05:22:15;;;;;;;45.97;22.65;;;;;;;;;;5052574;28;20033;-49
2021/11/19 05:24:42;;;;;;;49.63;24.00;;;;;;;;;;5052924;28;20385;-49
2021/11/19 05:27:08;;;;;;;45.40;22.30;;;;;;;;;;5054022;28;20021;-50
2021/11/19 05:29:37;;;;;;;48.72;21.92;;;;;;;;;;5056745;28;20024;-50
2021/11/19 05:32:04;;;;;;;46.92;22.42;;;;;;;;;;5056693;28;20461;-50
2021/11/19 05:34:30;;;;;;;46.28;20.75;;;;;;;;;;5056661;28;20032;-50
2021/11/19 05:36:56;;;;;;;45.80;23.73;;;;;;;;;;5056176;28;20029;-50
2021/11/19 05:39:22;;;;;;;51.15;22.73;;;;;;;;;;5056495;28;20092;-50
2021/11/19 05:41:50;;;;;;;50.22;23.83;;;;;;;;;;5056357;28;20036;-50
2021/11/19 05:44:19;;;;;;;64.07;29.15;;;;;;;;;;5056307;28;20025;-50
2021/11/19 05:46:46;;;;;;;69.47;30.45;;;;;;;;;;5056453;28;20495;-50
2021/11/19 05:49:15;;;;;;;64.07;30.65;;;;;;;;;;5056206;28;20027;-51
2021/11/19 05:51:41;;;;;;;58.35;29.92;;;;;;;;;;5055993;28;20060;-50
2021/11/19 05:54:09;;;;;;;61.75;29.42;;;;;;;;;;5056296;28;20040;-50
2021/11/19 05:56:35;;;;;;;60.85;29.52;;;;;;;;;;5054895;28;20068;-50
2021/11/19 05:59:01;;;;;;;54.83;27.40;;;;;;;;;;5056561;28;20025;-50
2021/11/19 06:01:27;;;;;;;55.70;29.95;;;;;;;;;;5055823;28;20162;-50
2021/11/19 06:03:54;;;;;;;65.05;32.05;;;;;;;;;;5055940;28;20021;-51
2021/11/19 06:06:21;;;;;;;85.63;39.72;;;;;;;;;;5055944;28;20025;-50
2021/11/19 06:08:47;;;;;;;92.20;39.95;;;;;;;;;;5056347;28;20020;-50
2021/11/19 06:11:16;;;;;;;73.57;36.67;;;;;;;;;;5055809;28;20039;-50
2021/11/19 06:13:49;;;;;;;63.78;32.55;;;;;;;;;;5055892;28;20043;-50
2021/11/19 06:16:20;;;;;;;54.60;28.77;;;;;;;;;;5055882;28;20464;-50
2021/11/19 06:18:49;;;;;;;48.65;25.95;;;;;;;;;;5055833;28;20025;-50
2021/11/19 06:21:20;;;;;;;49.10;25.63;;;;;;;;;;5055580;28;20476;-50
2021/11/19 06:23:48;;;;;;;46.38;24.83;;;;;;;;;;5055790;28;20108;-50
2021/11/19 06:26:15;;;;;;;40.20;23.17;;;;;;;;;;5055907;28;20105;-51
2021/11/19 06:28:43;;;;;;;45.25;25.05;;;;;;;;;;5055686;28;20087;-50
2021/11/19 06:31:10;;;;;;;44.50;24.63;;;;;;;;;;5055775;28;20100;-51
2021/11/19 06:33:37;;;;;;;44.67;26.38;;;;;;;;;;5055567;28;20021;-51
2021/11/19 06:36:04;;;;;;;41.13;25.40;;;;;;;;;;5055655;28;20025;-50
2021/11/19 06:38:32;;;;;;;38.85;24.13;;;;;;;;;;5054748;28;20056;-51
2021/11/19 06:40:58;;;;;;;40.97;27.10;;;;;;;;;;5055399;28;20037;-50
2021/11/19 06:43:25;;;;;;;46.75;28.02;;;;;;;;;;5055487;28;20017;-51
2021/11/19 06:45:51;;;;;;;44.50;25.23;;;;;;;;;;5055386;28;20044;-51
2021/11/19 06:48:17;;;;;;;42.60;23.90;;;;;;;;;;5055335;28;20025;-51
2021/11/19 06:50:44;;;;;;;39.38;23.95;;;;;;;;;;5055225;28;20473;-51
2021/11/19 06:53:18;;;;;;;48.78;25.05;;;;;;;;;;5055418;28;20074;-51
2021/11/19 06:55:44;;;;;;;54.75;27.67;;;;;;;;;;5055359;28;20480;-51
2021/11/19 06:58:14;;;;;;;51.63;27.42;;;;;;;;;;5055214;28;20021;-51
2021/11/19 07:00:42;;;;;;;52.70;28.52;;;;;;;;;;5055137;28;20033;-51
2021/11/19 07:03:08;;;;;;;51.47;28.27;;;;;;;;;;5055071;28;20088;-51
2021/11/19 07:05:34;;;;;;;45.10;24.88;;;;;;;;;;5054983;28;20028;-50
2021/11/19 07:08:05;;;;;;;46.75;25.15;;;;;;;;;;5055130;28;20017;-51
2021/11/19 07:10:31;;;;;;;50.25;26.77;;;;;;;;;;5055104;28;20036;-50
2021/11/19 07:12:58;;;;;;;46.90;25.67;;;;;;;;;;5055085;28;20028;-50
2021/11/19 07:15:24;;;;;;;48.05;26.05;;;;;;;;;;5054918;28;20040;-51
2021/11/19 07:17:50;;;;;;;45.03;24.67;;;;;;;;;;5054816;28;20354;-50
2021/11/19 07:20:19;;;;;;;49.80;26.38;;;;;;;;;;5054531;28;20028;-51
2021/11/19 07:22:45;;;;;;;45.75;25.65;;;;;;;;;;5055014;28;20040;-50
2021/11/19 07:25:13;;;;;;;49.33;26.85;;;;;;;;;;5054885;28;20021;-50
2021/11/19 07:27:40;;;;;;;69.38;36.10;;;;;;;;;;5054414;28;20473;-50
2021/11/19 07:30:09;;;;;;;70.97;36.65;;;;;;;;;;5054578;28;20101;-52
2021/11/19 07:32:36;;;;;;;71.70;39.42;;;;;;;;;;5054369;28;20025;-50
2021/11/19 07:35:03;;;;;;;70.00;41.35;;;;;;;;;;5054299;28;20029;-50
2021/11/19 07:37:29;;;;;;;58.75;33.08;;;;;;;;;;5054455;28;20503;-49
2021/11/19 07:39:55;;;;;;;47.60;26.83;;;;;;;;;;5054369;28;20148;-50
2021/11/19 07:42:22;;;;;;;40.83;23.77;;;;;;;;;;5054152;28;20039;-51
2021/11/19 07:44:48;;;;;;;40.38;24.63;;;;;;;;;;5054333;28;20021;-51
2021/11/19 07:47:14;;;;;;;42.22;21.55;;;;;;;;;;5054111;28;20108;-50
2021/11/19 07:49:40;;;;;;;31.95;19.15;;;;;;;;;;5054021;28;20032;-51
2021/11/19 07:52:07;;;;;;;40.47;22.00;;;;;;;;;;5053876;28;20053;-50
2021/11/19 07:54:33;;;;;;;48.53;26.90;;;;;;;;;;5053968;28;20025;-50
2021/11/19 07:56:59;;;;;;;42.03;23.88;;;;;;;;;;5054157;28;20025;-51
2021/11/19 07:59:27;;;;;;;40.40;22.48;;;;;;;;;;5053941;28;20021;-51
2021/11/19 08:01:56;;;;;;;43.05;24.38;;;;;;;;;;5053895;28;20037;-52
2021/11/19 08:04:22;;;;;;;42.78;23.15;;;;;;;;;;5053925;28;20017;-52
2021/11/19 08:06:53;;;;;;;50.15;27.63;;;;;;;;;;5053802;28;20096;-51
2021/11/19 08:09:22;;;;;;;58.83;31.80;;;;;;;;;;5052545;28;20090;-52
2021/11/19 08:11:49;;;;;;;57.15;31.02;;;;;;;;;;5053781;28;20029;-52
2021/11/19 08:14:15;;;;;;;55.55;28.60;;;;;;;;;;5053660;28;20034;-52
2021/11/19 08:16:54;;;;;;;51.20;29.10;;;;;;;;;;5053499;28;20029;-52
2021/11/19 08:19:24;;;;;;;53.28;29.77;;;;;;;;;;5053596;28;20028;-51
2021/11/19 08:21:51;;;;;;;48.65;27.02;;;;;;;;;;5053178;28;20404;-52
2021/11/19 08:24:17;;;;;;;42.60;24.98;;;;;;;;;;5053575;28;20028;-54
2021/11/19 08:26:46;;;;;;;50.97;26.85;;;;;;;;;;5053578;28;20025;-52
2021/11/19 08:29:14;;;;;;;52.10;25.52;;;;;;;;;;5053424;28;20021;-53
2021/11/19 08:31:41;;;;;;;57.60;31.60;;;;;;;;;;5053431;28;20475;-53
2021/11/19 08:34:12;;;;;;;51.95;28.77;;;;;;;;;;5053407;28;20029;-53
2021/11/19 08:36:38;;;;;;;54.75;27.63;;;;;;;;;;5053260;28;20107;-53
2021/11/19 08:39:29;;;;;;;51.60;29.17;;;;;;;;;;5053341;28;20354;-53
2021/11/19 08:41:55;;;;;;;;;;;;;;;;;;5053492;28;20041;-53
2021/11/19 08:44:22;;;;;;;34.60;19.75;;;;;;;;;;5053163;28;19988;-53
2021/11/19 08:46:50;;;;;;;38.85;22.23;;;;;;;;;;5053229;28;20025;-53
2021/11/19 08:49:21;;;;;;;49.53;28.15;;;;;;;;;;5053111;28;20036;-56
2021/11/19 08:51:50;;;;;;;;;;;;;;;;;;5053222;28;20045;-52
2021/11/19 08:54:16;;;;;;;40.58;23.90;;;;;;;;;;5053097;28;20384;-53
2021/11/19 08:56:47;;;;;;;46.78;25.98;;;;;;;;;;5053120;28;20021;-52
2021/11/19 08:59:15;;;;;;;41.72;23.48;;;;;;;;;;5053146;28;20075;-54
2021/11/19 09:01:43;;;;;;;49.30;27.10;;;;;;;;;;5052342;28;20625;-54
2021/11/19 09:04:09;;;;;;;36.10;19.60;;;;;;;;;;5053061;28;20427;-51
2021/11/19 09:06:36;;;;;;;32.92;19.63;;;;;;;;;;5052791;28;20031;-52
2021/11/19 09:09:06;;;;;;;40.70;22.25;;;;;;;;;;5052934;28;20032;-53
2021/11/19 09:11:32;;;;;;;62.75;31.15;;;;;;;;;;5052807;28;20025;-52
2021/11/19 09:13:58;;;;;;;72.30;36.47;;;;;;;;;;5052783;28;20021;-52
2021/11/19 09:16:27;;;;;;;51.42;25.52;;;;;;;;;;5052926;28;20072;-51
2021/11/19 09:19:16;;;;;;;101.88;44.53;;;;;;;;;;5052808;28;20500;-51
2021/11/19 09:21:42;;;;;;;127.07;59.50;;;;;;;;;;5046835;28;20053;-51
2021/11/19 09:24:10;;;;;;;104.05;49.13;;;;;;;;;;5052680;28;20025;-51
2021/11/19 09:26:43;;;;;;;126.38;56.20;;;;;;;;;;5052906;28;20071;-51
2021/11/19 09:29:12;;;;;;;179.15;76.80;;;;;;;;;;5052649;28;20029;-51
2021/11/19 09:31:39;;;;;;;103.32;47.67;;;;;;;;;;5052598;28;20029;-51
2021/11/19 09:34:06;;;;;;;80.78;39.25;;;;;;;;;;5052513;28;20021;-51
2021/11/19 09:36:32;;;;;;;159.98;66.03;;;;;;;;;;5052526;28;20031;-51
2021/11/19 09:38:58;;;;;;;164.93;66.30;;;;;;;;;;5052564;28;20064;-51
2021/11/19 09:41:36;;;;;;;140.90;59.25;;;;;;;;;;5052305;28;20033;-50
2021/11/19 09:44:23;;;;;;;121.75;54.85;;;;;;;;;;5052582;28;20032;-50
2021/11/19 09:47:03;;;;;;;164.85;70.97;;;;;;;;;;5052427;28;20025;-50
2021/11/19 09:49:33;;;;;;;109.85;49.65;;;;;;;;;;5052556;28;20021;-50
2021/11/19 09:52:17;;;;;;;126.88;53.08;;;;;;;;;;5052373;28;20102;-50
2021/11/19 09:54:46;;;;;;;215.85;93.65;;;;;;;;;;5052496;28;20064;-50
2021/11/19 09:57:23;;;;;;;202.57;88.60;;;;;;;;;;5052459;28;20025;-50
2021/11/19 10:00:03;;;;;;;224.52;94.78;;;;;;;;;;5052434;28;20055;-50
2021/11/19 10:02:37;;;;;;;159.05;71.70;;;;;;;;;;5051867;28;20040;-50
2021/11/19 10:05:07;;;;;;;85.47;40.63;;;;;;;;;;5052450;28;20031;-50
2021/11/19 10:07:42;;;;;;;88.93;42.03;;;;;;;;;;5052235;28;20025;-50
2021/11/19 10:10:23;;;;;;;123.85;58.90;;;;;;;;;;5052236;28;20025;-50
2021/11/19 10:13:12;;;;;;;172.88;79.18;;;;;;;;;;5051995;28;20053;-49
2021/11/19 10:15:41;;;;;;;106.95;50.15;;;;;;;;;;5050913;28;20037;-49
2021/11/19 10:18:07;;;;;;;209.35;95.07;;;;;;;;;;5051939;28;20024;-50
2021/11/19 10:20:33;;;;;;;213.20;94.55;;;;;;;;;;5054274;28;20017;-50
2021/11/19 10:23:04;;;;;;;80.13;39.28;;;;;;;;;;5054445;28;20041;-51
2021/11/19 10:25:30;;;;;;;179.20;80.75;;;;;;;;;;5052257;28;20024;-49
2021/11/19 10:27:57;;;;;;;67.28;33.55;;;;;;;;;;5054144;28;20415;-49
2021/11/19 10:30:35;;;;;;;279.77;123.18;;;;;;;;;;5054200;28;20036;-50
2021/11/19 10:33:06;;;;;;;69.10;33.95;;;;;;;;;;5054181;28;20013;-50
2021/11/19 10:35:40;;;;;;;120.00;55.80;;;;;;;;;;5054224;28;20381;-50
2021/11/19 10:38:23;;;;;;;114.03;52.00;;;;;;;;;;5052149;28;20024;-49
2021/11/19 10:41:08;;;;;;;156.60;69.95;;;;;;;;;;5052598;28;20079;-51
2021/11/19 10:44:06;;;;;;;194.50;84.25;;;;;;;;;;5052628;28;20496;-51
2021/11/19 10:46:51;;;;;;;176.43;80.78;;;;;;;;;;5031908;28;20064;-50
2021/11/19 10:49:29;;;;;;;135.52;61.40;;;;;;;;;;5031190;28;20065;-49
2021/11/19 10:51:55;;;;;;;233.07;104.53;;;;;;;;;;5031246;28;20057;-51
2021/11/19 10:54:40;;;;;;;175.60;79.80;;;;;;;;;;5031729;28;20029;-50
2021/11/19 10:57:18;;;;;;;162.13;75.10;;;;;;;;;;5029772;28;20049;-51
2021/11/19 11:00:04;;;;;;;96.15;45.63;;;;;;;;;;5029136;28;20033;-50
2021/11/19 11:02:49;;;;;;;90.65;44.83;;;;;;;;;;5029985;28;20095;-49
2021/11/19 11:05:23;;;;;;;108.35;54.45;;;;;;;;;;5031249;28;20117;-48
2021/11/19 11:08:08;;;;;;;99.82;50.80;;;;;;;;;;5014514;28;20038;-48
2021/11/19 11:10:38;;;;;;;157.60;75.55;;;;;;;;;;5030507;28;20113;-50
2021/11/19 11:13:22;;;;;;;81.38;41.83;;;;;;;;;;5029200;28;20029;-48
2021/11/19 11:16:00;;;;;;;117.18;59.40;;;;;;;;;;5029638;28;20156;-49
2021/11/19 11:18:29;;;;;;;89.88;44.65;;;;;;;;;;5029317;28;20093;-51
2021/11/19 11:20:55;;;;;;;127.50;61.25;;;;;;;;;;5030902;28;20033;-50
2021/11/19 11:23:27;;;;;;;76.88;35.40;;;;;;;;;;5052845;28;20444;-51
2021/11/19 11:26:00;;;;;;;105.03;49.63;;;;;;;;;;5053168;28;20588;-50
2021/11/19 11:28:47;;;;;;;90.93;40.58;;;;;;;;;;5051397;28;20028;-50
2021/11/19 11:31:35;;;;;;;136.75;66.13;;;;;;;;;;5052238;28;20548;-50
2021/11/19 11:34:10;;;;;;;177.23;77.20;;;;;;;;;;5053134;28;20017;-51
2021/11/19 11:36:39;;;;;;;92.13;41.78;;;;;;;;;;5052906;28;20396;-50
2021/11/19 11:39:19;;;;;;;128.70;57.50;;;;;;;;;;5052985;28;20024;-49
2021/11/19 11:41:54;;;;;;;110.13;51.33;;;;;;;;;;5050118;28;20413;-50
2021/11/19 11:44:25;;;;;;;89.50;39.88;;;;;;;;;;5054198;28;20044;-49
2021/11/19 11:46:57;;;;;;;87.80;41.15;;;;;;;;;;5054301;28;20539;-49
2021/11/19 11:49:29;;;;;;;75.18;37.40;;;;;;;;;;5053553;28;20028;-48
2021/11/19 11:51:58;;;;;;;58.63;30.42;;;;;;;;;;5053904;28;20080;-49
2021/11/19 11:54:24;;;;;;;135.10;64.68;;;;;;;;;;5052971;28;20029;-46
2021/11/19 11:57:10;;;;;;;78.20;40.88;;;;;;;;;;5052735;28;20107;-49
2021/11/19 11:59:43;;;;;;;86.22;42.88;;;;;;;;;;5051402;28;20041;-47
2021/11/19 12:02:23;;;;;;;134.90;68.90;;;;;;;;;;5052775;28;20052;-47
2021/11/19 12:04:58;;;;;;;50.78;27.10;;;;;;;;;;5050421;28;20041;-47
2021/11/19 12:07:35;;;;;;;85.75;39.88;;;;;;;;;;5052536;28;20021;-48
2021/11/19 12:10:24;;;;;;;64.85;32.30;;;;;;;;;;5051624;28;20132;-46
2021/11/19 12:12:56;;;;;;;54.38;28.17;;;;;;;;;;5050041;28;20468;-48
2021/11/19 12:15:28;;;;;;;54.70;27.75;;;;;;;;;;5052359;28;20025;-47
2021/11/19 12:17:57;;;;;;;47.30;26.17;;;;;;;;;;5052073;28;20044;-48
2021/11/19 12:20:46;;;;;;;51.78;30.25;;;;;;;;;;5052341;28;20133;-48
2021/11/19 12:23:24;;;;;;;75.75;38.63;;;;;;;;;;5050183;28;20040;-48
2021/11/19 12:26:06;;;;;;;56.08;29.15;;;;;;;;;;5049792;28;20025;-48
2021/11/19 12:28:45;;;;;;;41.17;22.95;;;;;;;;;;5050098;28;20427;-48
2021/11/19 12:31:18;;;;;;;36.97;21.75;;;;;;;;;;5052084;28;20021;-49
2021/11/19 12:33:46;;;;;;;63.33;29.50;;;;;;;;;;5052076;28;20032;-49
2021/11/19 12:36:12;;;;;;;117.78;56.67;;;;;;;;;;5051680;28;20025;-48
2021/11/19 12:38:43;;;;;;;106.10;52.40;;;;;;;;;;5045174;28;20039;-49
2021/11/19 12:41:15;;;;;;;105.55;49.45;;;;;;;;;;5025217;28;20029;-48
2021/11/19 12:43:50;;;;;;;54.35;28.38;;;;;;;;;;5022280;28;20021;-47
2021/11/19 12:46:29;;;;;;;108.40;56.30;;;;;;;;;;5023525;28;20473;-47
2021/11/19 12:49:15;;;;;;;86.97;49.55;;;;;;;;;;5023987;28;20151;-46
2021/11/19 12:51:50;;;;;;;42.28;22.30;;;;;;;;;;5018615;28;20489;-47
2021/11/19 12:54:28;;;;;;;45.30;23.40;;;;;;;;;;5022103;28;20037;-46
2021/11/19 12:57:13;;;;;;;41.88;23.67;;;;;;;;;;5022359;28;20033;-46
2021/11/19 12:59:53;;;;;;;60.35;30.50;;;;;;;;;;5022039;28;20037;-49
2021/11/19 13:02:37;;;;;;;61.33;30.98;;;;;;;;;;5022029;28;20387;-46
2021/11/19 13:05:10;;;;;;;70.97;40.47;;;;;;;;;;5022087;28;20151;-47
2021/11/19 13:07:43;;;;;;;44.72;25.13;;;;;;;;;;5022972;28;20026;-47
2021/11/19 13:10:16;;;;;;;65.70;37.28;;;;;;;;;;5021991;28;20048;-47
2021/11/19 13:13:01;;;;;;;65.30;33.53;;;;;;;;;;5022509;28;20028;-44
2021/11/19 13:15:30;;;;;;;56.60;29.45;;;;;;;;;;5022959;28;20036;-46
2021/11/19 13:18:22;;;;;;;63.08;37.30;;;;;;;;;;5021646;28;20021;-46
2021/11/19 13:20:55;;;;;;;45.13;26.70;;;;;;;;;;4998730;28;20034;-45
2021/11/19 13:23:35;;;;;;;65.88;33.38;;;;;;;;;;4998675;28;20517;-46
2021/11/19 13:26:13;;;;;;;54.75;29.75;;;;;;;;;;5000050;28;20065;-46
2021/11/19 13:28:48;;;;;;;49.10;26.35;;;;;;;;;;5000390;28;20429;-48
2021/11/19 13:31:20;;;;;;;38.58;22.00;;;;;;;;;;4999401;28;20038;-47
2021/11/19 13:34:04;;;;;;;44.50;25.25;;;;;;;;;;5000147;28;20029;-48
2021/11/19 13:36:33;;;;;;;73.00;39.22;;;;;;;;;;4998582;28;20460;-48
2021/11/19 13:39:14;;;;;;;62.80;32.75;;;;;;;;;;4998808;28;20766;-47
2021/11/19 13:41:43;;;;;;;34.58;20.85;;;;;;;;;;4999957;28;20037;-47
2021/11/19 13:44:12;;;;;;;36.22;21.88;;;;;;;;;;4998873;28;20030;-47
2021/11/19 13:46:47;;;;;;;48.38;26.40;;;;;;;;;;4999204;28;20037;-47
2021/11/19 13:49:27;;;;;;;44.35;26.35;;;;;;;;;;5001491;28;20049;-47
2021/11/19 13:51:53;;;;;;;90.70;47.75;;;;;;;;;;5002139;28;20467;-47
2021/11/19 13:54:48;;;;;;;46.00;28.48;;;;;;;;;;5002737;28;20742;-46
2021/11/19 13:57:22;;;;;;;83.75;43.70;;;;;;;;;;4993346;28;20058;-48
2021/11/19 13:59:51;;;;;;;72.55;38.20;;;;;;;;;;4983496;28;20113;-47
2021/11/19 14:02:21;;;;;;;48.83;28.60;;;;;;;;;;4983321;28;20046;-47
2021/11/19 14:04:50;;;;;;;50.08;30.35;;;;;;;;;;4984743;28;20040;-48
2021/11/19 14:07:21;;;;;;;41.63;24.52;;;;;;;;;;4983245;28;20031;-47
2021/11/19 14:09:52;;;;;;;53.83;29.90;;;;;;;;;;4983368;28;20026;-47
2021/11/19 14:12:30;;;;;;;59.50;34.03;;;;;;;;;;4984988;28;20034;-47
2021/11/19 14:14:59;;;;;;;66.88;38.80;;;;;;;;;;4984042;28;20545;-48
2021/11/19 14:17:29;;;;;;;57.53;33.90;;;;;;;;;;4989590;28;20341;-47
2021/11/19 14:23:35;;;;;;;67.13;34.28;;;;;;;;;;4965084;28;20166;-47
2021/11/19 14:26:04;;;;;;;56.63;29.48;;;;;;;;;;4926229;29;20070;-46
2021/11/19 14:28:34;;;;;;;63.47;36.78;;;;;;;;;;4925913;29;20048;-45
2021/11/19 14:31:08;;;;;;;48.50;28.85;;;;;;;;;;4924774;29;20046;-47
2021/11/19 14:33:52;;;;;;;71.28;40.45;;;;;;;;;;4924616;29;20071;-46
2021/11/19 14:36:25;;;;;;;65.35;38.55;;;;;;;;;;4926230;29;20027;-47
2021/11/19 14:38:53;;;;;;;61.80;34.13;;;;;;;;;;4925863;29;20091;-45
2021/11/19 14:41:19;;;;;;;62.55;36.20;;;;;;;;;;4924250;29;20469;-45